Time;durP1;ratioP1;P1;durP2;ratioP2;P2;SDS_P1;SDS_P2;PMS_P1;PMS_P2;Temp;Humidity;BMP_temperature;BMP_pressure;BME280_temperature;BME280_humidity;BME280_pressure;Samples;Min_cycle;Max_cycle;Signal;HPM_P1;HPM_P2
2022/09/07 00:01:09;;;;;;;6.78;1.90;;;;;;;13.27;65.58;101548.97;2067532;28;20050;-70
2022/09/07 00:02:13;;;;;;;8.52;1.98;;;;;;;13.27;65.54;101554.38;2062553;28;20053;-70
2022/09/07 00:03:21;;;;;;;8.02;2.08;;;;;;;13.26;65.46;101552.75;2072512;28;20038;-70
2022/09/07 00:04:27;;;;;;;7.22;2.08;;;;;;;13.25;65.47;101545.75;2088017;28;20550;-70
2022/09/07 00:05:33;;;;;;;4.40;1.60;;;;;;;13.21;65.06;101551.66;2072801;28;20054;-70
2022/09/07 00:06:40;;;;;;;7.05;1.83;;;;;;;13.23;64.68;101552.19;2072733;28;20056;-70
2022/09/07 00:07:47;;;;;;;12.73;2.38;;;;;;;13.22;64.79;101547.06;2077680;28;20049;-70
2022/09/07 00:08:50;;;;;;;7.88;1.98;;;;;;;13.23;64.69;101549.47;2073204;28;20045;-70
2022/09/07 00:09:55;;;;;;;10.45;2.60;;;;;;;13.21;64.57;101546.25;2088348;28;20590;-70
2022/09/07 00:11:07;;;;;;;9.05;1.40;;;;;;;13.18;64.15;101546.78;2087744;28;20057;-70
2022/09/07 00:12:12;;;;;;;9.15;1.92;;;;;;;13.18;63.69;101543.28;2088507;28;20043;-71
2022/09/07 00:13:17;;;;;;;7.18;1.50;;;;;;;13.17;63.32;101545.16;2088298;28;20033;-70
2022/09/07 00:14:20;;;;;;;9.27;1.60;;;;;;;13.18;63.33;101540.59;2080249;28;20053;-70
2022/09/07 00:15:31;;;;;;;2.58;1.65;;;;;;;13.18;63.02;101543.28;2080065;28;20057;-70
2022/09/07 00:16:34;;;;;;;10.50;2.28;;;;;;;13.15;62.78;101543.84;2080668;28;20061;-69
2022/09/07 00:17:40;;;;;;;6.43;1.40;;;;;;;13.16;62.59;101542.75;2079570;28;20482;-70
2022/09/07 00:18:55;;;;;;;3.33;1.52;;;;;;;13.15;62.60;101536.53;2081386;28;20057;-70
2022/09/07 00:19:59;;;;;;;3.80;1.58;;;;;;;13.16;62.78;101537.34;2075108;28;20501;-70
2022/09/07 00:21:04;;;;;;;2.45;1.50;;;;;;;13.13;62.69;101537.88;2086961;28;20056;-70
2022/09/07 00:22:09;;;;;;;4.72;1.60;;;;;;;13.13;62.39;101537.88;2096614;28;20487;-70
2022/09/07 00:23:14;;;;;;;5.30;1.40;;;;;;;13.12;62.79;101526.28;2079481;28;20057;-70
2022/09/07 00:24:23;;;;;;;;;;;;;;;13.10;62.72;101525.72;2074512;28;20081;-70
2022/09/07 00:25:26;;;;;;;3.65;1.75;;;;;;;13.07;62.79;101528.97;2072658;28;19925;-70
2022/09/07 00:26:30;;;;;;;3.80;1.65;;;;;;;13.08;63.18;101527.91;2072269;28;20054;-70
2022/09/07 00:27:33;;;;;;;5.22;1.85;;;;;;;13.08;62.81;101518.97;2072302;28;20453;-69
2022/09/07 00:28:39;;;;;;;5.50;2.20;;;;;;;13.07;63.24;101523.56;2081154;28;20057;-70
2022/09/07 00:29:43;;;;;;;2.78;1.70;;;;;;;13.07;63.17;101517.38;2071720;28;20052;-69
2022/09/07 00:30:49;;;;;;;2.97;1.55;;;;;;;13.06;63.17;101519.25;2067665;28;20081;-71
2022/09/07 00:31:51;;;;;;;6.05;1.80;;;;;;;13.05;62.99;101522.22;2073294;28;20128;-71
2022/09/07 00:32:58;;;;;;;2.05;1.52;;;;;;;13.02;62.90;101526.28;2071585;28;20049;-70
2022/09/07 00:34:05;;;;;;;2.45;1.65;;;;;;;13.01;62.90;101524.66;2065212;28;20069;-71
2022/09/07 00:35:08;;;;;;;4.30;1.52;;;;;;;13.01;62.61;101524.66;2064217;28;20054;-71
2022/09/07 00:36:13;;;;;;;3.85;1.80;;;;;;;13.01;62.87;101521.97;2059865;28;20058;-71
2022/09/07 00:37:21;;;;;;;2.97;1.60;;;;;;;13.01;62.84;101529.25;2072139;28;20053;-70
2022/09/07 00:38:25;;;;;;;2.22;1.55;;;;;;;12.97;62.81;101521.69;2065375;28;20506;-69
2022/09/07 00:39:36;;;;;;;5.05;1.67;;;;;;;12.94;62.63;101519.53;2065642;28;20034;-70
2022/09/07 00:40:38;;;;;;;3.83;1.67;;;;;;;12.95;62.60;101526.53;2073460;28;20531;-70
2022/09/07 00:41:47;;;;;;;2.28;1.60;;;;;;;12.94;62.75;101521.44;2072317;28;20587;-71
2022/09/07 00:42:56;;;;;;;1.95;1.40;;;;;;;12.93;62.99;101522.53;2066806;28;20046;-68
2022/09/07 00:44:37;;;;;;;2.72;1.50;;;;;;;12.92;62.61;101526.28;2065365;28;20053;-69
2022/09/07 00:45:41;;;;;;;2.55;1.30;;;;;;;12.90;62.43;101523.06;2081803;28;20095;-70
2022/09/07 00:46:43;;;;;;;2.45;1.50;;;;;;;12.86;62.58;101521.97;2071867;28;20065;-69
2022/09/07 00:47:44;;;;;;;4.07;1.40;;;;;;;12.87;62.66;101527.09;2064105;28;20549;-70
2022/09/07 00:49:11;;;;;;;1.58;1.27;;;;;;;12.88;63.00;101525.22;2081101;28;20049;-70
2022/09/07 00:50:44;;;;;;;4.20;1.42;;;;;;;12.85;62.61;101521.16;2091079;28;20048;-70
2022/09/07 00:52:02;;;;;;;3.17;1.60;;;;;;;12.84;62.29;101529.53;2085183;28;20049;-70
2022/09/07 00:53:15;;;;;;;5.97;1.50;;;;;;;12.84;62.26;101518.75;2094542;28;20033;-70
2022/09/07 00:54:28;;;;;;;6.20;1.70;;;;;;;12.82;62.15;101526.28;2087835;28;20403;-70
2022/09/07 00:55:41;;;;;;;6.88;1.60;;;;;;;12.83;61.75;101522.50;2067613;28;20046;-69
2022/09/07 00:56:51;;;;;;;8.43;1.50;;;;;;;12.82;61.69;101518.19;2082480;28;20045;-70
2022/09/07 00:57:58;;;;;;;6.65;1.85;;;;;;;12.82;61.43;101526.28;2074799;28;20417;-70
2022/09/07 00:59:01;;;;;;;7.88;1.88;;;;;;;12.79;61.23;101526.81;2066068;28;20053;-70
2022/09/07 01:00:08;;;;;;;11.15;2.17;;;;;;;12.77;60.92;101527.09;2078499;28;20037;-70
2022/09/07 01:01:16;;;;;;;4.82;1.40;;;;;;;12.75;60.69;101524.66;2080433;28;20049;-70
2022/09/07 01:02:22;;;;;;;5.80;1.45;;;;;;;12.74;60.73;101533.84;2064542;28;20035;-71
2022/09/07 01:03:32;;;;;;;5.65;1.50;;;;;;;12.60;60.46;101535.44;2058936;28;20031;-71
2022/09/07 01:04:43;;;;;;;3.53;1.40;;;;;;;12.61;60.43;101520.88;2076355;28;20049;-70
2022/09/07 01:05:56;;;;;;;10.60;1.80;;;;;;;12.66;60.68;101523.56;2081061;28;20037;-70
2022/09/07 01:07:02;;;;;;;2.13;1.50;;;;;;;12.64;60.71;101531.16;2090175;28;20298;-71
2022/09/07 01:08:04;;;;;;;3.20;1.35;;;;;;;12.58;60.65;101531.38;2091728;28;20789;-70
2022/09/07 01:09:12;;;;;;;6.15;1.70;;;;;;;12.53;60.81;101524.91;2090418;28;20041;-71
2022/09/07 01:10:22;;;;;;;4.90;1.73;;;;;;;12.54;60.81;101520.31;2104864;28;20036;-70
2022/09/07 01:11:30;;;;;;;4.25;1.55;;;;;;;12.55;60.90;101521.97;2096356;28;20033;-71
2022/09/07 01:12:38;;;;;;;3.20;1.40;;;;;;;12.49;60.89;101520.34;2089645;28;20053;-71
2022/09/07 01:13:45;;;;;;;5.57;1.95;;;;;;;12.49;61.26;101523.03;2087039;28;20037;-70
2022/09/07 01:14:54;;;;;;;3.40;1.20;;;;;;;12.49;61.30;101523.03;2089689;28;20055;-70
2022/09/07 01:16:15;;;;;;;4.43;1.45;;;;;;;12.45;61.59;101516.53;2091527;28;20036;-70
2022/09/07 01:17:32;;;;;;;2.10;1.38;;;;;;;12.46;61.69;101518.97;2091048;28;20041;-69
2022/09/07 01:18:44;;;;;;;4.22;1.60;;;;;;;12.47;61.55;101515.19;2081935;28;20652;-70
2022/09/07 01:20:04;;;;;;;5.50;1.60;;;;;;;12.44;62.04;101512.22;2073621;28;20049;-71
2022/09/07 01:21:26;;;;;;;3.75;1.50;;;;;;;12.44;61.79;101514.91;2074093;28;20505;-71
2022/09/07 01:22:51;;;;;;;3.28;1.45;;;;;;;12.43;61.50;101511.41;2068969;28;20046;-70
2022/09/07 01:24:12;;;;;;;2.72;1.45;;;;;;;12.43;61.47;101516.81;2071571;28;20048;-70
2022/09/07 01:25:34;;;;;;;5.10;1.92;;;;;;;12.45;61.44;101511.97;2068418;28;20049;-70
2022/09/07 01:26:57;;;;;;;4.65;1.50;;;;;;;12.45;61.60;101513.84;2077800;28;20044;-69
2022/09/07 01:28:11;;;;;;;2.60;1.48;;;;;;;12.45;61.78;101503.03;2088246;28;20111;-69
2022/09/07 01:29:40;;;;;;;1.92;1.50;;;;;;;12.42;61.94;101512.50;2088278;28;20473;-69
2022/09/07 01:31:13;;;;;;;1.85;1.40;;;;;;;12.40;61.98;101505.75;2084833;28;20060;-70
2022/09/07 01:32:43;;;;;;;2.15;1.05;;;;;;;12.38;61.92;101515.97;2096514;28;20286;-69
2022/09/07 01:34:01;;;;;;;2.20;1.60;;;;;;;12.37;61.58;101515.19;2087978;28;20041;-70
2022/09/07 01:35:16;;;;;;;3.80;1.38;;;;;;;12.38;61.90;101510.59;2087727;28;20053;-70
2022/09/07 01:36:39;;;;;;;1.90;1.20;;;;;;;12.38;62.14;101508.69;2092944;28;20916;-70
2022/09/07 01:38:15;;;;;;;2.55;1.38;;;;;;;12.37;61.99;101508.97;2080662;28;20296;-70
2022/09/07 01:39:28;;;;;;;4.18;1.63;;;;;;;12.38;61.92;101514.09;2081350;28;20302;-70
2022/09/07 01:40:53;;;;;;;2.95;1.50;;;;;;;12.40;62.00;101513.84;2064546;28;20296;-70
2022/09/07 01:42:17;;;;;;;3.95;1.60;;;;;;;12.39;61.66;101506.81;2075949;28;20037;-72
2022/09/07 01:43:43;;;;;;;4.47;1.50;;;;;;;12.38;62.15;101502.50;2083204;28;20041;-70
2022/09/07 01:45:02;;;;;;;2.50;1.33;;;;;;;12.38;62.03;101505.19;2080908;28;20129;-70
2022/09/07 01:46:17;;;;;;;3.35;1.50;;;;;;;12.37;62.39;101509.78;2070670;28;20042;-70
2022/09/07 01:47:30;;;;;;;3.78;1.38;;;;;;;12.37;61.88;101507.09;2060372;28;20286;-70
2022/09/07 01:48:41;;;;;;;2.30;1.30;;;;;;;12.38;62.00;101502.50;2070548;28;20046;-70
2022/09/07 01:50:01;;;;;;;2.78;1.55;;;;;;;12.36;62.09;101502.78;2081567;28;20057;-69
2022/09/07 01:51:06;;;;;;;3.63;1.35;;;;;;;12.34;61.86;101496.84;2083738;28;20033;-70
2022/09/07 01:52:18;;;;;;;4.13;1.27;;;;;;;12.33;62.03;101497.91;2080520;28;20041;-69
2022/09/07 01:53:27;;;;;;;1.70;1.17;;;;;;;12.34;62.13;101504.94;2083591;28;20128;-69
2022/09/07 01:54:44;;;;;;;2.17;1.50;;;;;;;12.33;61.75;101497.13;2093801;28;20053;-70
2022/09/07 01:56:02;;;;;;;4.20;1.58;;;;;;;12.34;61.84;101494.13;2097663;28;20049;-68
2022/09/07 01:57:09;;;;;;;2.17;1.40;;;;;;;12.32;61.91;101495.47;2080824;28;20056;-69
2022/09/07 01:58:45;;;;;;;2.65;1.33;;;;;;;12.30;62.02;101493.06;2082731;28;20037;-70
2022/09/07 01:59:52;;;;;;;2.33;1.45;;;;;;;12.32;62.09;101487.38;2073077;28;20289;-69
2022/09/07 02:01:09;;;;;;;3.97;1.52;;;;;;;12.31;62.02;101483.06;2066176;28;20449;-70
2022/09/07 02:02:29;;;;;;;2.28;1.67;;;;;;;12.32;62.19;101498.16;2083534;28;20030;-70
2022/09/07 02:03:55;;;;;;;2.63;1.50;;;;;;;12.28;62.11;101495.19;2089166;28;20387;-70
2022/09/07 02:05:18;;;;;;;3.00;1.27;;;;;;;12.21;62.12;101492.75;2083850;28;20036;-70
2022/09/07 02:06:38;;;;;;;2.67;1.45;;;;;;;12.21;62.20;101490.06;2088622;28;20044;-70
2022/09/07 02:08:16;;;;;;;2.75;1.55;;;;;;;12.19;61.83;101494.09;2067736;28;20296;-70
2022/09/07 02:09:48;;;;;;;2.88;1.60;;;;;;;12.16;62.13;101494.63;2078910;28;20055;-70
2022/09/07 02:11:03;;;;;;;3.47;1.80;;;;;;;12.12;62.29;101491.66;2094730;28;20303;-69
2022/09/07 02:12:23;;;;;;;4.40;1.70;;;;;;;12.11;62.16;101490.06;2098249;28;20531;-70
2022/09/07 02:13:40;;;;;;;3.22;1.20;;;;;;;12.06;62.08;101498.91;2097617;28;20294;-70
2022/09/07 02:14:47;;;;;;;2.67;1.40;;;;;;;12.05;62.00;101491.13;2083633;28;20300;-70
2022/09/07 02:16:09;;;;;;;2.50;1.48;;;;;;;12.07;62.04;101488.94;2089997;28;20790;-70
2022/09/07 02:17:28;;;;;;;5.47;1.88;;;;;;;12.08;62.16;101495.16;2084042;28;20367;-70
2022/09/07 02:18:40;;;;;;;4.32;1.60;;;;;;;12.02;61.86;101497.03;2085374;28;20284;-70
2022/09/07 02:19:58;;;;;;;4.05;1.60;;;;;;;12.00;61.83;101488.38;2082737;28;20300;-70
2022/09/07 02:21:08;;;;;;;4.75;1.30;;;;;;;11.99;61.71;101489.47;2086009;28;20045;-71
2022/09/07 02:22:20;;;;;;;2.80;1.45;;;;;;;11.97;61.83;101483.53;2089065;28;20048;-71
2022/09/07 02:23:32;;;;;;;3.75;1.20;;;;;;;11.95;62.02;101480.31;2088840;28;20295;-70
2022/09/07 02:24:52;;;;;;;3.22;1.40;;;;;;;11.91;61.85;101489.97;2088270;28;20298;-70
2022/09/07 02:26:10;;;;;;;3.13;1.00;;;;;;;11.85;62.00;101488.34;2071502;28;20288;-70
2022/09/07 02:27:24;;;;;;;3.63;1.40;;;;;;;11.86;62.51;101482.69;2082317;28;20386;-70
2022/09/07 02:28:35;;;;;;;1.80;1.20;;;;;;;11.85;62.27;101482.94;2073647;28;20300;-70
2022/09/07 02:29:37;;;;;;;3.08;1.30;;;;;;;11.89;62.09;101492.16;2061133;28;20297;-69
2022/09/07 02:30:43;;;;;;;3.72;1.60;;;;;;;11.88;62.46;101483.22;2081950;28;20060;-70
2022/09/07 02:31:46;;;;;;;1.92;1.27;;;;;;;11.87;62.55;101478.91;2081217;28;20326;-69
2022/09/07 02:32:50;;;;;;;2.17;1.30;;;;;;;11.90;62.22;101488.38;2089101;28;20298;-70
2022/09/07 02:33:55;;;;;;;3.33;1.38;;;;;;;11.87;62.43;101481.63;2080465;28;20315;-70
2022/09/07 02:35:01;;;;;;;2.15;1.30;;;;;;;11.88;62.67;101483.22;2072991;28;20319;-70
2022/09/07 02:36:06;;;;;;;3.40;1.40;;;;;;;11.89;62.73;101484.88;2081157;28;20303;-71
2022/09/07 02:37:12;;;;;;;2.75;1.38;;;;;;;11.91;62.62;101484.59;2072193;28;20656;-70
2022/09/07 02:38:18;;;;;;;3.85;1.40;;;;;;;11.90;62.86;101483.78;2066478;28;20297;-70
2022/09/07 02:39:21;;;;;;;2.45;1.23;;;;;;;11.91;63.03;101480.00;2072942;28;20708;-71
2022/09/07 02:40:29;;;;;;;3.03;1.55;;;;;;;11.91;63.03;101479.19;2073818;28;20293;-70
2022/09/07 02:41:42;;;;;;;4.10;1.50;;;;;;;11.92;62.88;101476.25;2065529;28;20726;-70
2022/09/07 02:42:47;;;;;;;2.75;1.52;;;;;;;11.93;62.62;101487.84;2060369;28;20046;-70
2022/09/07 02:43:57;;;;;;;2.67;1.30;;;;;;;11.93;62.96;101483.25;2066051;28;20289;-70
2022/09/07 02:45:06;;;;;;;3.10;1.70;;;;;;;11.93;62.66;101474.38;2081387;28;20947;-70
2022/09/07 02:46:33;;;;;;;3.08;1.60;;;;;;;11.93;62.79;101477.06;2079844;28;20300;-70
2022/09/07 02:47:58;;;;;;;3.42;1.33;;;;;;;11.92;62.82;101478.16;2080427;28;20132;-70
2022/09/07 02:49:25;;;;;;;2.90;1.40;;;;;;;11.92;62.75;101478.16;2079185;28;20041;-70
2022/09/07 02:50:49;;;;;;;2.78;1.55;;;;;;;11.90;63.15;101482.97;2093486;28;20312;-70
2022/09/07 02:52:22;;;;;;;5.97;1.63;;;;;;;11.90;62.74;101475.69;2097274;28;20294;-69
2022/09/07 02:53:31;;;;;;;3.45;1.88;;;;;;;11.86;63.07;101476.50;2080137;28;20292;-70
2022/09/07 02:55:13;;;;;;;3.17;1.70;;;;;;;11.86;63.17;101477.31;2075000;28;20052;-70
2022/09/07 02:56:29;;;;;;;4.57;1.52;;;;;;;11.89;62.83;101481.38;2092364;28;20857;-70
2022/09/07 02:58:14;;;;;;;3.40;1.50;;;;;;;11.89;62.91;101475.97;2096721;28;20828;-70
2022/09/07 02:59:34;;;;;;;5.00;1.63;;;;;;;11.89;63.05;101475.97;2063890;28;20290;-70
2022/09/07 03:01:06;;;;;;;3.05;1.52;;;;;;;11.88;62.98;101472.44;2073178;28;20284;-69
2022/09/07 03:02:22;;;;;;;2.95;1.58;;;;;;;11.87;62.99;101476.22;2085014;28;20048;-69
2022/09/07 03:04:08;;;;;;;2.72;1.40;;;;;;;11.85;63.13;101477.56;2091138;28;20052;-69
2022/09/07 03:05:24;;;;;;;2.00;1.42;;;;;;;11.84;62.93;101482.09;2097131;28;20290;-69
2022/09/07 03:06:47;;;;;;;4.00;1.65;;;;;;;11.83;62.81;101467.84;2066213;28;20304;-69
2022/09/07 03:07:55;;;;;;;2.00;1.55;;;;;;;11.86;63.03;101471.13;2073766;28;20284;-69
2022/09/07 03:09:10;;;;;;;2.80;1.50;;;;;;;11.83;62.52;101469.72;2082824;28;20583;-69
2022/09/07 03:10:14;;;;;;;4.00;1.75;;;;;;;11.80;62.68;101471.06;2098914;28;20297;-69
2022/09/07 03:11:19;;;;;;;5.10;1.52;;;;;;;11.80;62.97;101471.06;2096923;28;20818;-69
2022/09/07 03:12:22;;;;;;;6.15;1.70;;;;;;;11.76;62.79;101469.16;2089163;28;20291;-69
2022/09/07 03:13:28;;;;;;;3.05;1.52;;;;;;;11.73;62.98;101459.72;2088667;28;20296;-69
2022/09/07 03:14:39;;;;;;;4.70;1.33;;;;;;;11.71;63.08;101469.94;2082581;28;20420;-69
2022/09/07 03:15:41;;;;;;;3.35;1.40;;;;;;;11.73;62.84;101467.00;2097407;28;20291;-70
2022/09/07 03:16:46;;;;;;;2.90;1.45;;;;;;;11.64;63.27;101458.59;2083085;28;20300;-70
2022/09/07 03:17:51;;;;;;;3.80;1.58;;;;;;;11.67;63.39;101462.66;2058453;28;20802;-70
2022/09/07 03:18:54;;;;;;;2.53;1.27;;;;;;;11.69;62.80;101458.59;2065585;28;20305;-70
2022/09/07 03:20:02;;;;;;;3.40;1.60;;;;;;;11.72;63.17;101460.78;2070209;28;20681;-70
2022/09/07 03:21:07;;;;;;;5.47;1.63;;;;;;;11.72;62.88;101454.56;2087135;28;20303;-70
2022/09/07 03:22:11;;;;;;;3.38;1.52;;;;;;;11.69;62.79;101458.59;2088120;28;20713;-70
2022/09/07 03:23:13;;;;;;;5.20;1.45;;;;;;;11.68;62.99;101458.88;2088753;28;20291;-70
2022/09/07 03:24:16;;;;;;;5.68;1.50;;;;;;;11.67;62.76;101458.06;2071174;28;20792;-70
2022/09/07 03:25:26;;;;;;;2.55;1.48;;;;;;;11.67;63.65;101460.78;2072424;28;20289;-70
2022/09/07 03:26:32;;;;;;;2.30;1.65;;;;;;;11.65;62.94;101457.53;2057597;28;20302;-70
2022/09/07 03:27:39;;;;;;;6.68;1.90;;;;;;;11.65;63.18;101464.81;2066075;28;20765;-70
2022/09/07 03:28:43;;;;;;;7.20;1.77;;;;;;;11.66;63.28;101461.03;2064545;28;20061;-70
2022/09/07 03:29:46;;;;;;;5.75;2.20;;;;;;;11.66;63.22;101461.03;2066099;28;20777;-69
2022/09/07 03:30:51;;;;;;;3.90;2.15;;;;;;;11.68;63.44;101458.88;2071800;28;20765;-69
2022/09/07 03:31:55;;;;;;;2.42;1.60;;;;;;;11.69;63.34;101466.69;2070386;28;20054;-69
2022/09/07 03:33:05;;;;;;;12.85;1.85;;;;;;;11.70;63.34;101468.31;2088780;28;20735;-69
2022/09/07 03:34:10;;;;;;;4.90;2.30;;;;;;;11.67;64.02;101458.06;2088466;28;20302;-69
2022/09/07 03:35:16;;;;;;;5.40;1.95;;;;;;;11.67;63.63;101458.06;2073037;28;20289;-70
2022/09/07 03:36:21;;;;;;;3.70;1.85;;;;;;;11.69;63.55;101461.31;2066064;28;20482;-69
2022/09/07 03:37:26;;;;;;;6.28;1.60;;;;;;;11.70;64.14;101472.91;2064444;28;20309;-69
2022/09/07 03:38:29;;;;;;;5.95;2.03;;;;;;;11.69;64.09;101461.31;2065166;28;20779;-69
2022/09/07 03:39:32;;;;;;;4.65;2.10;;;;;;;11.69;63.76;101460.50;2069075;28;20309;-69
2022/09/07 03:40:36;;;;;;;8.55;2.03;;;;;;;11.69;64.33;101463.19;2080973;28;20285;-69
2022/09/07 03:41:40;;;;;;;6.80;1.80;;;;;;;11.69;63.89;101468.56;2096748;28;20295;-69
2022/09/07 03:42:48;;;;;;;4.45;2.22;;;;;;;11.69;64.35;101472.06;2088411;28;20687;-69
2022/09/07 03:43:53;;;;;;;3.13;1.83;;;;;;;11.70;64.31;101473.72;2081097;28;20296;-69
2022/09/07 03:45:01;;;;;;;5.20;2.40;;;;;;;11.69;64.35;101464.00;2081917;28;20026;-69
2022/09/07 03:46:06;;;;;;;3.70;2.20;;;;;;;11.69;64.86;101460.50;2079936;28;20303;-69
2022/09/07 03:47:11;;;;;;;7.32;2.20;;;;;;;11.69;64.86;101465.88;2068018;28;20301;-71
2022/09/07 03:48:15;;;;;;;3.50;1.73;;;;;;;11.68;65.13;101469.66;2047518;28;20394;-70
2022/09/07 03:49:18;;;;;;;3.92;2.17;;;;;;;11.68;64.78;101464.28;2072775;28;20703;-69
2022/09/07 03:50:24;;;;;;;3.65;2.13;;;;;;;11.66;64.90;101474.50;2079831;28;20788;-70
2022/09/07 03:51:27;;;;;;;4.50;2.30;;;;;;;11.65;64.87;101476.38;2079193;28;20056;-70
2022/09/07 03:52:31;;;;;;;12.02;2.33;;;;;;;11.65;64.83;101471.00;2086417;28;20307;-69
2022/09/07 03:53:41;;;;;;;10.57;2.40;;;;;;;11.64;65.20;101472.06;2081078;28;20289;-69
2022/09/07 03:54:46;;;;;;;6.13;2.60;;;;;;;11.66;65.49;101480.69;2082354;28;20667;-69
2022/09/07 03:56:04;;;;;;;9.13;2.35;;;;;;;11.65;65.34;101476.38;2073175;28;20301;-69
2022/09/07 03:57:11;;;;;;;6.05;2.45;;;;;;;11.65;65.32;101476.38;2083234;28;20743;-69
2022/09/07 03:58:15;;;;;;;6.60;3.40;;;;;;;11.66;65.20;101478.00;2087418;28;20575;-68
2022/09/07 03:59:36;;;;;;;5.18;2.83;;;;;;;11.66;65.40;101471.78;2088553;28;20287;-69
2022/09/07 04:00:48;;;;;;;4.05;2.45;;;;;;;11.65;65.03;101476.38;2088348;28;20302;-69
2022/09/07 04:01:51;;;;;;;7.10;2.67;;;;;;;11.66;65.15;101479.88;2069415;28;20057;-69
2022/09/07 04:02:54;;;;;;;6.47;2.65;;;;;;;11.67;64.95;101479.63;2072042;28;20057;-69
2022/09/07 04:04:01;;;;;;;5.95;2.65;;;;;;;11.66;65.46;101486.06;2087766;28;20683;-69
2022/09/07 04:05:10;;;;;;;6.35;2.50;;;;;;;11.66;65.51;101480.69;2088187;28;20295;-69
2022/09/07 04:06:22;;;;;;;4.28;2.30;;;;;;;11.67;65.20;101485.00;2083078;28;20037;-69
2022/09/07 04:07:27;;;;;;;6.78;2.50;;;;;;;11.67;65.23;101485.00;2072761;28;20303;-68
2022/09/07 04:08:34;;;;;;;5.47;2.17;;;;;;;11.66;64.99;101480.69;2057037;28;20302;-69
2022/09/07 04:09:38;;;;;;;5.63;2.20;;;;;;;11.67;65.29;101482.31;2074767;28;20551;-69
2022/09/07 04:10:48;;;;;;;9.05;2.30;;;;;;;11.66;65.07;101478.00;2081116;28;20284;-69
2022/09/07 04:11:49;;;;;;;7.93;2.03;;;;;;;11.67;65.41;101481.53;2081152;28;20377;-69
2022/09/07 04:12:53;;;;;;;8.07;2.25;;;;;;;11.66;65.41;101480.69;2079219;28;20053;-69
2022/09/07 04:13:59;;;;;;;7.40;3.53;;;;;;;11.65;65.29;101473.69;2080190;28;20049;-70
2022/09/07 04:15:09;;;;;;;6.53;3.40;;;;;;;11.65;65.12;101481.75;2088848;28;20037;-69
2022/09/07 04:16:23;;;;;;;9.30;3.72;;;;;;;11.66;65.49;101488.75;2095774;28;20286;-69
2022/09/07 04:17:27;;;;;;;6.85;3.45;;;;;;;11.66;65.28;101483.38;2096466;28;20282;-69
2022/09/07 04:18:34;;;;;;;10.20;2.50;;;;;;;11.67;65.31;101485.00;2094993;28;20052;-69
2022/09/07 04:19:41;;;;;;;11.50;3.17;;;;;;;11.67;64.98;101476.94;2087759;28;20053;-69
2022/09/07 04:20:45;;;;;;;8.35;2.50;;;;;;;11.69;65.22;101479.34;2088140;28;20671;-69
2022/09/07 04:21:48;;;;;;;7.05;2.42;;;;;;;11.69;64.96;101485.53;2079885;28;20440;-69
2022/09/07 04:22:54;;;;;;;6.65;2.47;;;;;;;11.67;65.16;101479.63;2063838;28;20429;-69
2022/09/07 04:23:58;;;;;;;4.45;2.38;;;;;;;11.66;65.20;101478.00;2056217;28;20833;-69
2022/09/07 04:25:06;;;;;;;4.10;2.40;;;;;;;11.65;65.43;101476.38;2071697;28;20729;-69
2022/09/07 04:26:23;;;;;;;5.53;2.38;;;;;;;11.67;64.86;101474.25;2081711;28;20283;-69
2022/09/07 04:27:25;;;;;;;6.85;2.25;;;;;;;11.67;64.64;101468.84;2081657;28;20052;-69
2022/09/07 04:28:32;;;;;;;3.45;2.03;;;;;;;11.67;64.85;101471.53;2064543;28;20047;-69
2022/09/07 04:29:35;;;;;;;7.80;2.13;;;;;;;11.69;64.56;101474.78;2065689;28;20312;-69
2022/09/07 04:30:41;;;;;;;3.58;1.95;;;;;;;11.70;64.18;101479.09;2080873;28;20291;-70
2022/09/07 04:31:43;;;;;;;5.47;2.35;;;;;;;11.72;64.18;101485.03;2073291;28;20297;-69
2022/09/07 04:32:46;;;;;;;4.45;2.25;;;;;;;11.73;64.31;101481.28;2072051;28;20296;-70
2022/09/07 04:33:49;;;;;;;3.20;1.88;;;;;;;11.75;63.74;101481.81;2071934;28;20061;-71
2022/09/07 04:34:54;;;;;;;6.28;2.22;;;;;;;11.77;63.59;101484.25;2080773;28;20284;-70
2022/09/07 04:36:00;;;;;;;4.45;2.22;;;;;;;11.79;63.46;101482.91;2078468;28;20049;-70
2022/09/07 04:37:03;;;;;;;3.00;2.13;;;;;;;11.81;63.52;101486.13;2056690;28;20157;-70
2022/09/07 04:38:08;;;;;;;5.75;2.10;;;;;;;11.77;63.17;101474.28;2055553;28;20054;-71
2022/09/07 04:39:12;;;;;;;5.85;2.35;;;;;;;11.81;63.27;101474.56;2071418;28;20344;-70
2022/09/07 04:40:22;;;;;;;6.60;2.33;;;;;;;11.87;62.97;101472.72;2094972;28;20045;-69
2022/09/07 04:41:30;;;;;;;7.22;2.10;;;;;;;11.91;63.11;101468.41;2085176;28;20444;-71
2022/09/07 04:42:45;;;;;;;4.50;2.10;;;;;;;11.94;63.07;101467.88;2078395;28;20284;-70
2022/09/07 04:43:49;;;;;;;3.78;2.15;;;;;;;11.97;62.67;101461.97;2078075;28;20712;-70
2022/09/07 04:44:52;;;;;;;5.90;2.17;;;;;;;12.05;62.47;101464.97;2070683;28;21066;-70
2022/09/07 04:45:59;;;;;;;8.60;3.35;;;;;;;12.20;62.14;101457.97;2079315;28;20064;-71
2022/09/07 04:47:04;;;;;;;7.60;2.47;;;;;;;12.42;61.80;101471.22;2086569;28;20303;-69
2022/09/07 04:48:10;;;;;;;11.50;2.60;;;;;;;12.60;61.36;101459.09;2062865;28;20062;-71
2022/09/07 04:49:13;;;;;;;4.13;2.30;;;;;;;12.85;60.69;101463.66;2071476;28;20069;-70
2022/09/07 04:50:16;;;;;;;3.85;2.20;;;;;;;13.08;60.16;101465.81;2076805;28;20041;-70
2022/09/07 04:51:22;;;;;;;4.43;2.45;;;;;;;13.32;59.92;101465.25;2082216;28;20299;-70
2022/09/07 04:52:28;;;;;;;5.03;2.45;;;;;;;13.53;59.23;101461.41;2087655;28;20302;-70
2022/09/07 04:53:43;;;;;;;10.02;3.72;;;;;;;13.73;58.87;101460.50;2080062;28;20057;-69
2022/09/07 04:54:49;;;;;;;7.57;2.42;;;;;;;13.89;58.25;101463.94;2073159;28;20052;-69
2022/09/07 04:55:59;;;;;;;9.68;2.30;;;;;;;14.08;57.68;101462.19;2081334;28;20069;-70
2022/09/07 04:57:03;;;;;;;3.78;2.35;;;;;;;14.23;57.35;101468.59;2071756;28;20552;-70
2022/09/07 04:58:08;;;;;;;2.80;2.10;;;;;;;14.39;56.94;101462.00;2071954;28;20401;-70
2022/09/07 04:59:12;;;;;;;9.13;2.40;;;;;;;14.52;56.62;101468.69;2070466;28;20046;-70
2022/09/07 05:00:18;;;;;;;3.83;1.80;;;;;;;14.68;55.80;101466.66;2079619;28;20472;-70
2022/09/07 05:01:22;;;;;;;5.50;2.10;;;;;;;14.79;55.34;101465.50;2063029;28;20046;-70
2022/09/07 05:02:33;;;;;;;4.15;2.17;;;;;;;14.94;54.75;101473.50;2071641;28;20109;-70
2022/09/07 05:03:46;;;;;;;7.93;2.40;;;;;;;15.11;54.62;101472.25;2080471;28;20048;-70
2022/09/07 05:05:05;;;;;;;4.70;2.45;;;;;;;15.36;53.88;101471.16;2080133;28;20072;-70
2022/09/07 05:06:11;;;;;;;9.57;2.08;;;;;;;15.52;53.71;101467.97;2082592;28;20049;-70
2022/09/07 05:07:14;;;;;;;4.78;2.40;;;;;;;15.68;53.27;101473.25;2071352;28;20061;-70
2022/09/07 05:08:19;;;;;;;6.35;2.17;;;;;;;15.85;52.71;101468.13;2075685;28;20054;-72
2022/09/07 05:09:28;;;;;;;6.93;2.22;;;;;;;16.03;51.94;101471.97;2091950;28;20388;-72
2022/09/07 05:10:36;;;;;;;5.28;2.28;;;;;;;16.20;51.45;101466.84;2070594;28;20049;-77
2022/09/07 05:11:42;;;;;;;7.78;2.33;;;;;;;16.39;51.27;101464.13;2055126;28;20043;-73
2022/09/07 05:12:53;;;;;;;5.70;2.30;;;;;;;16.59;50.51;101462.19;2056649;28;20042;-75
2022/09/07 05:14:04;;;;;;;5.75;2.33;;;;;;;16.77;49.82;101466.78;2080262;28;20057;-73
2022/09/07 05:15:32;;;;;;;6.82;2.72;;;;;;;16.96;49.47;101457.75;2086968;28;20163;-73
2022/09/07 05:16:37;;;;;;;6.18;2.38;;;;;;;16.99;49.38;101459.88;2067723;28;20065;-72
2022/09/07 05:17:44;;;;;;;6.35;2.40;;;;;;;16.96;49.28;101458.56;2072915;28;20045;-72
2022/09/07 05:18:52;;;;;;;6.63;2.33;;;;;;;16.96;49.17;101452.31;2089213;28;20052;-73
2022/09/07 05:19:57;;;;;;;4.78;2.55;;;;;;;16.96;48.84;101457.75;2080789;28;20033;-73
2022/09/07 05:21:16;;;;;;;6.63;2.60;;;;;;;17.06;48.87;101450.22;2064462;28;20513;-71
2022/09/07 05:22:28;;;;;;;6.47;2.85;;;;;;;17.38;48.69;101443.91;2069923;28;20044;-73
2022/09/07 05:23:31;;;;;;;6.20;2.47;;;;;;;17.47;47.63;101445.91;2075749;28;20056;-73
2022/09/07 05:24:35;;;;;;;11.45;2.80;;;;;;;17.59;47.35;101451.63;2070833;28;20064;-72
2022/09/07 05:25:45;;;;;;;8.10;2.58;;;;;;;17.81;46.96;101437.31;2069433;28;20042;-72
2022/09/07 05:26:52;;;;;;;11.98;2.60;;;;;;;18.06;46.85;101452.28;2074070;28;20049;-73
2022/09/07 05:28:00;;;;;;;3.05;1.73;;;;;;;18.00;45.39;101448.88;2078997;28;20057;-72